Hlavní strana
METAR-TAF:

METAR-TAF

Letiště :

West Memphis, Arkansas, Spojené státy americké

zeměpisná šířka: 35-08N, zeměpisná délka: 090-14W, výška: 65 m

Aktuální stav počasí

Zpráva byla vytvořena před 20 minutami, v 02:53 UTC
Bezvětří
Teplota 0°C
Vlhkost vzduchu 74%
Tlak 1034 hPa
Viditelnost: 16.1 km
Jasno

METAR: KAWM 220253Z AUTO 00000KT 10SM CLR 00/M04 A3054 RMK AO2 SLP345 T00001039 58005

Čas: 21:13 (03:13 UTC)


TAF: chybějící

Stav a předpovědi počasí z více než 4 000 letišť (zprávy METAR a TAF).

Červené a žluté tečky na mapě představují dostupné meteorologické stanice.

Když kurzor umístíte na tečku, zobrazí se název stanice.

Pak kliknutím zobrazíte stav a předpověď počasí.

Chcete-li změnit mapu, kliknutím na zelené tlačítko se znaménkem +mapu přiblížíte, kliknutím na zelené tlačítko se znaménkem – mapu oddálíte a kliknutím na zelené šipky přejdete na sousední mapy.


METAR-TAF: